This is the latest recevied weather packets stored in our database for station/object KN6ZYR. If no packets are shown the sender has not sent any weather packets the latest 10 day(s).
| Time | Temp. | Humidity | Pressure | Rain* | Wind** | Luminosity | Snow |
|---|---|---|---|---|---|---|---|
| 1777305230 | 10° C | 53% | 1017 hPa | 0 mm | - | 230 W/m² | - |
| 1777304925 | 10° C | 53% | 1017.1 hPa | 0 mm | - | 154 W/m² | - |
| 1777304622 | 10° C | 52% | 1016.7 hPa | 0 mm | - | 311 W/m² | - |
| 1777304319 | 9.44° C | 54% | 1016.7 hPa | 0 mm | - | 277 W/m² | - |
| 1777304016 | 10° C | 54% | 1016.8 hPa | 0 mm | - | 188 W/m² | - |
| 1777303712 | 10° C | 54% | 1016.8 hPa | 0 mm | - | 284 W/m² | - |
| 1777303410 | 10° C | 54% | 1016.7 hPa | 0 mm | - | 268 W/m² | - |
| 1777303108 | 9.44° C | 55% | 1016.8 hPa | 0 mm | - | 214 W/m² | - |
| 1777302806 | 8.89° C | 56% | 1016.7 hPa | 0 mm | - | 161 W/m² | - |
| 1777302503 | 8.89° C | 57% | 1016.6 hPa | 0 mm | - | 145 W/m² | - |
| 1777302201 | 8.89° C | 58% | 1016.8 hPa | 0 mm | - | 147 W/m² | - |
| 1777301898 | 8.89° C | 58% | 1016.7 hPa | 0 mm | - | 139 W/m² | - |
| 1777301595 | 8.89° C | 58% | 1016.7 hPa | 0 mm | - | 123 W/m² | - |
| 1777301292 | 8.89° C | 58% | 1016.7 hPa | 0 mm | - | 111 W/m² | - |
| 1777300989 | 8.33° C | 59% | 1016.6 hPa | 0 mm | - | 95 W/m² | - |
| 1777300687 | 8.33° C | 58% | 1016.6 hPa | 0 mm | - | 75 W/m² | - |
| 1777300384 | 8.33° C | 58% | 1016.5 hPa | 0 mm | - | 66 W/m² | - |
| 1777300081 | 8.89° C | 58% | 1016.6 hPa | 0 mm | - | 64 W/m² | - |
| 1777299778 | 8.89° C | 57% | 1016.2 hPa | 0 mm | - | 98 W/m² | - |
| 1777299475 | 8.33° C | 57% | 1016.2 hPa | 0 mm | - | 119 W/m² | - |
| 1777299173 | 8.33° C | 58% | 1016.3 hPa | 0 mm | - | 56 W/m² | - |
| 1777298870 | 8.33° C | 59% | 1016.2 hPa | 0 mm | - | 52 W/m² | - |
| 1777298566 | 8.33° C | 59% | 1016.2 hPa | 0 mm | - | 47 W/m² | - |
| 1777298263 | 8.33° C | 59% | 1016 hPa | 0 mm | - | 36 W/m² | - |
| 1777297958 | 8.33° C | 59% | 1016 hPa | 0 mm | - | 29 W/m² | - |
* Rain latest hour (hover to see other rain measurements)
** Current wind speed in m/s (hover to see current wind gust speed)